sensor_id;sensor_type;location;lat;lon;timestamp;temperature;humidity
40636;DHT22;26642;55.766;37.828;2023-07-13T00:00:26;16.40;79.60
40636;DHT22;26642;55.766;37.828;2023-07-13T00:02:52;16.30;79.90
40636;DHT22;26642;55.766;37.828;2023-07-13T00:05:22;16.30;79.70
40636;DHT22;26642;55.766;37.828;2023-07-13T00:07:49;16.20;79.80
40636;DHT22;26642;55.766;37.828;2023-07-13T00:10:15;16.20;79.80
40636;DHT22;26642;55.766;37.828;2023-07-13T00:12:42;16.30;79.80
40636;DHT22;26642;55.766;37.828;2023-07-13T00:15:14;16.30;79.80
40636;DHT22;26642;55.766;37.828;2023-07-13T00:17:42;16.30;79.40
40636;DHT22;26642;55.766;37.828;2023-07-13T00:20:11;16.30;79.40
40636;DHT22;26642;55.766;37.828;2023-07-13T00:22:38;16.30;79.30
40636;DHT22;26642;55.766;37.828;2023-07-13T00:25:04;16.30;79.40
40636;DHT22;26642;55.766;37.828;2023-07-13T00:27:30;16.30;79.30
40636;DHT22;26642;55.766;37.828;2023-07-13T00:29:58;16.30;79.40
40636;DHT22;26642;55.766;37.828;2023-07-13T00:32:24;16.30;79.70
40636;DHT22;26642;55.766;37.828;2023-07-13T00:34:53;16.30;79.80
40636;DHT22;26642;55.766;37.828;2023-07-13T00:37:19;16.30;80.00
40636;DHT22;26642;55.766;37.828;2023-07-13T00:39:45;16.40;80.00
40636;DHT22;26642;55.766;37.828;2023-07-13T00:42:11;16.40;80.00
40636;DHT22;26642;55.766;37.828;2023-07-13T00:44:37;16.40;79.50
40636;DHT22;26642;55.766;37.828;2023-07-13T00:47:05;16.40;79.80
40636;DHT22;26642;55.766;37.828;2023-07-13T00:49:33;16.40;79.60
40636;DHT22;26642;55.766;37.828;2023-07-13T00:52:06;16.40;80.40
40636;DHT22;26642;55.766;37.828;2023-07-13T00:54:41;16.40;79.60
40636;DHT22;26642;55.766;37.828;2023-07-13T00:57:14;16.40;79.60
40636;DHT22;26642;55.766;37.828;2023-07-13T00:59:43;16.40;79.80
40636;DHT22;26642;55.766;37.828;2023-07-13T01:02:11;16.40;79.80
40636;DHT22;26642;55.766;37.828;2023-07-13T01:04:37;16.40;79.60
40636;DHT22;26642;55.766;37.828;2023-07-13T01:07:06;16.40;79.80
40636;DHT22;26642;55.766;37.828;2023-07-13T01:09:31;16.40;79.80
40636;DHT22;26642;55.766;37.828;2023-07-13T01:11:58;16.40;80.40
40636;DHT22;26642;55.766;37.828;2023-07-13T01:14:25;16.40;80.00
40636;DHT22;26642;55.766;37.828;2023-07-13T01:16:51;16.50;80.20
40636;DHT22;26642;55.766;37.828;2023-07-13T01:21:52;16.40;80.30
40636;DHT22;26642;55.766;37.828;2023-07-13T01:24:18;16.40;80.10
40636;DHT22;26642;55.766;37.828;2023-07-13T01:26:44;16.40;80.20
40636;DHT22;26642;55.766;37.828;2023-07-13T01:29:10;16.40;80.20
40636;DHT22;26642;55.766;37.828;2023-07-13T01:31:38;16.40;80.60
40636;DHT22;26642;55.766;37.828;2023-07-13T01:34:04;16.40;80.60
40636;DHT22;26642;55.766;37.828;2023-07-13T01:36:30;16.40;80.70
40636;DHT22;26642;55.766;37.828;2023-07-13T01:38:56;16.40;80.80
40636;DHT22;26642;55.766;37.828;2023-07-13T01:41:22;16.40;80.90
40636;DHT22;26642;55.766;37.828;2023-07-13T01:43:48;16.40;80.80
40636;DHT22;26642;55.766;37.828;2023-07-13T01:46:14;16.40;81.10
40636;DHT22;26642;55.766;37.828;2023-07-13T01:48:40;16.40;81.20
40636;DHT22;26642;55.766;37.828;2023-07-13T01:51:06;16.40;81.10
40636;DHT22;26642;55.766;37.828;2023-07-13T01:53:32;16.40;81.10
40636;DHT22;26642;55.766;37.828;2023-07-13T01:55:58;16.40;81.30
40636;DHT22;26642;55.766;37.828;2023-07-13T01:58:24;16.40;81.60
40636;DHT22;26642;55.766;37.828;2023-07-13T02:00:51;16.40;81.30
40636;DHT22;26642;55.766;37.828;2023-07-13T02:03:17;16.40;81.60
40636;DHT22;26642;55.766;37.828;2023-07-13T02:05:44;16.40;81.50
40636;DHT22;26642;55.766;37.828;2023-07-13T02:08:10;16.40;81.70
40636;DHT22;26642;55.766;37.828;2023-07-13T02:10:37;16.40;81.50
40636;DHT22;26642;55.766;37.828;2023-07-13T02:13:06;16.40;81.30
40636;DHT22;26642;55.766;37.828;2023-07-13T02:15:32;16.30;81.40
40636;DHT22;26642;55.766;37.828;2023-07-13T02:17:58;16.40;81.50
40636;DHT22;26642;55.766;37.828;2023-07-13T02:20:25;16.40;81.90
40636;DHT22;26642;55.766;37.828;2023-07-13T02:22:52;16.40;82.40
40636;DHT22;26642;55.766;37.828;2023-07-13T02:25:20;16.30;82.00
40636;DHT22;26642;55.766;37.828;2023-07-13T02:27:48;16.40;81.80
40636;DHT22;26642;55.766;37.828;2023-07-13T02:30:16;16.40;81.80
40636;DHT22;26642;55.766;37.828;2023-07-13T02:32:42;16.30;81.80
40636;DHT22;26642;55.766;37.828;2023-07-13T02:35:10;16.40;82.00
40636;DHT22;26642;55.766;37.828;2023-07-13T02:37:37;16.30;81.90
40636;DHT22;26642;55.766;37.828;2023-07-13T02:40:03;16.40;82.20
40636;DHT22;26642;55.766;37.828;2023-07-13T02:42:35;16.40;81.70
40636;DHT22;26642;55.766;37.828;2023-07-13T02:45:01;16.40;82.00
40636;DHT22;26642;55.766;37.828;2023-07-13T02:47:28;16.40;81.70
40636;DHT22;26642;55.766;37.828;2023-07-13T02:49:54;16.40;81.80
40636;DHT22;26642;55.766;37.828;2023-07-13T02:52:20;16.40;81.90
40636;DHT22;26642;55.766;37.828;2023-07-13T02:54:46;16.40;81.80
40636;DHT22;26642;55.766;37.828;2023-07-13T02:57:12;16.40;82.00
40636;DHT22;26642;55.766;37.828;2023-07-13T02:59:38;16.40;82.20
40636;DHT22;26642;55.766;37.828;2023-07-13T03:02:04;16.40;82.40
40636;DHT22;26642;55.766;37.828;2023-07-13T03:04:30;16.50;82.40
40636;DHT22;26642;55.766;37.828;2023-07-13T03:06:56;16.40;82.50
40636;DHT22;26642;55.766;37.828;2023-07-13T03:09:27;16.40;82.40
40636;DHT22;26642;55.766;37.828;2023-07-13T03:11:55;16.40;82.40
40636;DHT22;26642;55.766;37.828;2023-07-13T03:14:26;16.50;82.30
40636;DHT22;26642;55.766;37.828;2023-07-13T03:16:52;16.50;82.50
40636;DHT22;26642;55.766;37.828;2023-07-13T03:19:21;16.50;82.40
40636;DHT22;26642;55.766;37.828;2023-07-13T03:21:49;16.50;82.30
40636;DHT22;26642;55.766;37.828;2023-07-13T03:24:15;16.50;82.40
40636;DHT22;26642;55.766;37.828;2023-07-13T03:26:42;16.50;82.20
40636;DHT22;26642;55.766;37.828;2023-07-13T03:29:08;16.50;82.20
40636;DHT22;26642;55.766;37.828;2023-07-13T03:31:37;16.50;82.20
40636;DHT22;26642;55.766;37.828;2023-07-13T03:34:04;16.60;82.00
40636;DHT22;26642;55.766;37.828;2023-07-13T03:36:31;16.60;82.00
40636;DHT22;26642;55.766;37.828;2023-07-13T03:39:03;16.60;81.80
40636;DHT22;26642;55.766;37.828;2023-07-13T03:41:52;16.60;81.90
40636;DHT22;26642;55.766;37.828;2023-07-13T03:44:18;16.60;81.80
40636;DHT22;26642;55.766;37.828;2023-07-13T03:46:48;16.60;81.70
40636;DHT22;26642;55.766;37.828;2023-07-13T03:49:14;16.60;81.80
40636;DHT22;26642;55.766;37.828;2023-07-13T03:51:40;16.60;81.70
40636;DHT22;26642;55.766;37.828;2023-07-13T03:54:06;16.60;81.80
40636;DHT22;26642;55.766;37.828;2023-07-13T03:56:32;16.60;81.80
40636;DHT22;26642;55.766;37.828;2023-07-13T03:59:00;16.60;81.80
40636;DHT22;26642;55.766;37.828;2023-07-13T04:01:26;16.60;81.70
40636;DHT22;26642;55.766;37.828;2023-07-13T04:03:52;16.60;81.70
40636;DHT22;26642;55.766;37.828;2023-07-13T04:06:25;16.60;81.80
40636;DHT22;26642;55.766;37.828;2023-07-13T04:08:54;16.60;81.90
40636;DHT22;26642;55.766;37.828;2023-07-13T04:11:22;16.60;82.10
40636;DHT22;26642;55.766;37.828;2023-07-13T04:13:49;16.60;82.20
40636;DHT22;26642;55.766;37.828;2023-07-13T04:16:16;16.70;82.30
40636;DHT22;26642;55.766;37.828;2023-07-13T04:18:43;16.70;82.20
40636;DHT22;26642;55.766;37.828;2023-07-13T04:21:09;16.70;82.10
40636;DHT22;26642;55.766;37.828;2023-07-13T04:23:37;16.70;82.30
40636;DHT22;26642;55.766;37.828;2023-07-13T04:26:04;16.70;82.80
40636;DHT22;26642;55.766;37.828;2023-07-13T04:28:30;16.80;82.50
40636;DHT22;26642;55.766;37.828;2023-07-13T04:30:56;16.70;82.40
40636;DHT22;26642;55.766;37.828;2023-07-13T04:33:23;16.80;82.50
40636;DHT22;26642;55.766;37.828;2023-07-13T04:35:50;16.80;82.40
40636;DHT22;26642;55.766;37.828;2023-07-13T04:38:20;16.80;82.80
40636;DHT22;26642;55.766;37.828;2023-07-13T04:40:46;16.80;83.10
40636;DHT22;26642;55.766;37.828;2023-07-13T04:43:12;16.80;82.30
40636;DHT22;26642;55.766;37.828;2023-07-13T04:45:38;16.80;82.30
40636;DHT22;26642;55.766;37.828;2023-07-13T04:48:05;16.90;82.10
40636;DHT22;26642;55.766;37.828;2023-07-13T04:50:31;16.90;81.70
40636;DHT22;26642;55.766;37.828;2023-07-13T04:52:57;16.90;81.70
40636;DHT22;26642;55.766;37.828;2023-07-13T04:55:23;16.90;81.70
40636;DHT22;26642;55.766;37.828;2023-07-13T04:57:49;16.90;81.80
40636;DHT22;26642;55.766;37.828;2023-07-13T05:00:15;16.90;82.30
40636;DHT22;26642;55.766;37.828;2023-07-13T05:02:44;16.90;82.30
40636;DHT22;26642;55.766;37.828;2023-07-13T05:05:11;16.90;82.50
40636;DHT22;26642;55.766;37.828;2023-07-13T05:07:37;17.00;82.70
40636;DHT22;26642;55.766;37.828;2023-07-13T05:10:03;17.00;82.50
40636;DHT22;26642;55.766;37.828;2023-07-13T05:12:30;17.00;82.60
40636;DHT22;26642;55.766;37.828;2023-07-13T05:14:56;17.00;83.10
40636;DHT22;26642;55.766;37.828;2023-07-13T05:17:22;17.00;83.30
40636;DHT22;26642;55.766;37.828;2023-07-13T05:19:48;17.00;83.10
40636;DHT22;26642;55.766;37.828;2023-07-13T05:22:14;17.00;83.30
40636;DHT22;26642;55.766;37.828;2023-07-13T05:24:40;17.10;83.40
40636;DHT22;26642;55.766;37.828;2023-07-13T05:27:06;17.10;83.50
40636;DHT22;26642;55.766;37.828;2023-07-13T05:29:32;17.10;83.30
40636;DHT22;26642;55.766;37.828;2023-07-13T05:31:58;17.20;83.00
40636;DHT22;26642;55.766;37.828;2023-07-13T05:34:24;17.20;82.90
40636;DHT22;26642;55.766;37.828;2023-07-13T05:36:50;17.30;82.90
40636;DHT22;26642;55.766;37.828;2023-07-13T05:39:16;17.30;82.30
40636;DHT22;26642;55.766;37.828;2023-07-13T05:41:42;17.40;82.10
40636;DHT22;26642;55.766;37.828;2023-07-13T05:44:08;17.50;81.90
40636;DHT22;26642;55.766;37.828;2023-07-13T05:46:34;17.50;81.40
40636;DHT22;26642;55.766;37.828;2023-07-13T05:49:00;17.60;81.10
40636;DHT22;26642;55.766;37.828;2023-07-13T05:51:26;17.60;81.30
40636;DHT22;26642;55.766;37.828;2023-07-13T05:53:51;17.70;81.50
40636;DHT22;26642;55.766;37.828;2023-07-13T05:56:17;17.70;80.80
40636;DHT22;26642;55.766;37.828;2023-07-13T05:58:43;17.80;80.50
40636;DHT22;26642;55.766;37.828;2023-07-13T06:01:12;17.80;80.20
40636;DHT22;26642;55.766;37.828;2023-07-13T06:03:38;17.90;80.20
40636;DHT22;26642;55.766;37.828;2023-07-13T06:06:05;17.90;79.70
40636;DHT22;26642;55.766;37.828;2023-07-13T06:08:31;18.00;79.40
40636;DHT22;26642;55.766;37.828;2023-07-13T06:11:13;18.00;79.00
40636;DHT22;26642;55.766;37.828;2023-07-13T06:13:40;18.00;78.70
40636;DHT22;26642;55.766;37.828;2023-07-13T06:16:06;18.00;78.50
40636;DHT22;26642;55.766;37.828;2023-07-13T06:18:34;18.00;78.50
40636;DHT22;26642;55.766;37.828;2023-07-13T06:21:00;18.10;78.10
40636;DHT22;26642;55.766;37.828;2023-07-13T06:23:26;18.00;77.90
40636;DHT22;26642;55.766;37.828;2023-07-13T06:25:52;18.10;77.20
40636;DHT22;26642;55.766;37.828;2023-07-13T06:28:19;18.10;77.20
40636;DHT22;26642;55.766;37.828;2023-07-13T06:30:45;18.10;76.90
40636;DHT22;26642;55.766;37.828;2023-07-13T06:33:10;18.10;76.70
40636;DHT22;26642;55.766;37.828;2023-07-13T06:35:36;18.10;76.80
40636;DHT22;26642;55.766;37.828;2023-07-13T06:38:02;18.20;76.30
40636;DHT22;26642;55.766;37.828;2023-07-13T06:40:28;18.20;76.40
40636;DHT22;26642;55.766;37.828;2023-07-13T06:42:56;18.20;75.50
40636;DHT22;26642;55.766;37.828;2023-07-13T06:45:22;18.20;75.20
40636;DHT22;26642;55.766;37.828;2023-07-13T06:47:48;18.20;75.00
40636;DHT22;26642;55.766;37.828;2023-07-13T06:50:15;18.20;74.50
40636;DHT22;26642;55.766;37.828;2023-07-13T06:52:41;18.30;74.50
40636;DHT22;26642;55.766;37.828;2023-07-13T06:55:07;18.30;74.60
40636;DHT22;26642;55.766;37.828;2023-07-13T06:57:34;18.30;74.50
40636;DHT22;26642;55.766;37.828;2023-07-13T06:59:59;18.40;74.00
40636;DHT22;26642;55.766;37.828;2023-07-13T07:02:25;18.40;73.80
40636;DHT22;26642;55.766;37.828;2023-07-13T07:04:51;18.50;73.30
40636;DHT22;26642;55.766;37.828;2023-07-13T07:07:17;18.60;73.00
40636;DHT22;26642;55.766;37.828;2023-07-13T07:09:43;18.50;73.30
40636;DHT22;26642;55.766;37.828;2023-07-13T07:12:09;18.50;73.50
40636;DHT22;26642;55.766;37.828;2023-07-13T07:14:35;18.50;73.90
40636;DHT22;26642;55.766;37.828;2023-07-13T07:17:01;18.50;74.30
40636;DHT22;26642;55.766;37.828;2023-07-13T07:19:29;18.50;74.70
40636;DHT22;26642;55.766;37.828;2023-07-13T07:21:55;18.50;75.10
40636;DHT22;26642;55.766;37.828;2023-07-13T07:24:21;18.40;75.40
40636;DHT22;26642;55.766;37.828;2023-07-13T07:26:47;18.40;75.90
40636;DHT22;26642;55.766;37.828;2023-07-13T07:29:13;18.30;75.70
40636;DHT22;26642;55.766;37.828;2023-07-13T07:31:39;18.30;76.10
40636;DHT22;26642;55.766;37.828;2023-07-13T07:34:06;18.30;76.60
40636;DHT22;26642;55.766;37.828;2023-07-13T07:36:32;18.30;77.00
40636;DHT22;26642;55.766;37.828;2023-07-13T07:38:58;18.20;76.60
40636;DHT22;26642;55.766;37.828;2023-07-13T07:41:24;18.30;76.90
40636;DHT22;26642;55.766;37.828;2023-07-13T07:43:50;18.20;76.50
40636;DHT22;26642;55.766;37.828;2023-07-13T07:46:16;18.20;77.10
40636;DHT22;26642;55.766;37.828;2023-07-13T07:48:41;18.20;78.30
40636;DHT22;26642;55.766;37.828;2023-07-13T07:51:07;18.20;79.10
40636;DHT22;26642;55.766;37.828;2023-07-13T07:53:33;18.10;79.90
40636;DHT22;26642;55.766;37.828;2023-07-13T07:55:59;18.10;79.90
40636;DHT22;26642;55.766;37.828;2023-07-13T07:58:25;18.20;78.90
40636;DHT22;26642;55.766;37.828;2023-07-13T08:00:51;18.10;78.90
40636;DHT22;26642;55.766;37.828;2023-07-13T08:03:17;18.20;79.10
40636;DHT22;26642;55.766;37.828;2023-07-13T08:05:43;18.20;79.60
40636;DHT22;26642;55.766;37.828;2023-07-13T08:08:09;18.10;80.00
40636;DHT22;26642;55.766;37.828;2023-07-13T08:10:36;18.20;79.80
40636;DHT22;26642;55.766;37.828;2023-07-13T08:13:02;18.20;79.60
40636;DHT22;26642;55.766;37.828;2023-07-13T08:15:28;18.20;79.80
40636;DHT22;26642;55.766;37.828;2023-07-13T08:17:54;18.20;78.80
40636;DHT22;26642;55.766;37.828;2023-07-13T08:20:20;18.10;78.60
40636;DHT22;26642;55.766;37.828;2023-07-13T08:22:46;18.10;78.80
40636;DHT22;26642;55.766;37.828;2023-07-13T08:25:12;18.10;79.10
40636;DHT22;26642;55.766;37.828;2023-07-13T08:27:38;18.10;79.70
40636;DHT22;26642;55.766;37.828;2023-07-13T08:30:05;18.10;80.90
40636;DHT22;26642;55.766;37.828;2023-07-13T08:32:31;18.10;80.80
40636;DHT22;26642;55.766;37.828;2023-07-13T08:34:57;18.10;80.20
40636;DHT22;26642;55.766;37.828;2023-07-13T08:37:23;18.10;80.60
40636;DHT22;26642;55.766;37.828;2023-07-13T08:39:49;18.10;80.70
40636;DHT22;26642;55.766;37.828;2023-07-13T08:50:43;18.20;81.60
40636;DHT22;26642;55.766;37.828;2023-07-13T08:53:15;18.20;82.00
40636;DHT22;26642;55.766;37.828;2023-07-13T08:55:42;18.20;82.20
40636;DHT22;26642;55.766;37.828;2023-07-13T08:58:14;18.10;82.10
40636;DHT22;26642;55.766;37.828;2023-07-13T09:03:40;18.10;82.20
40636;DHT22;26642;55.766;37.828;2023-07-13T09:06:09;18.20;82.10
40636;DHT22;26642;55.766;37.828;2023-07-13T09:08:41;18.20;82.00
40636;DHT22;26642;55.766;37.828;2023-07-13T09:11:30;18.20;82.20
40636;DHT22;26642;55.766;37.828;2023-07-13T09:14:05;18.20;82.40
40636;DHT22;26642;55.766;37.828;2023-07-13T09:16:33;18.20;81.80
40636;DHT22;26642;55.766;37.828;2023-07-13T09:19:04;18.20;80.70
40636;DHT22;26642;55.766;37.828;2023-07-13T09:21:34;18.20;82.20
40636;DHT22;26642;55.766;37.828;2023-07-13T09:26:55;18.20;82.60
40636;DHT22;26642;55.766;37.828;2023-07-13T09:29:31;18.30;82.80
40636;DHT22;26642;55.766;37.828;2023-07-13T09:32:02;18.30;83.10
40636;DHT22;26642;55.766;37.828;2023-07-13T09:34:29;18.20;83.20
40636;DHT22;26642;55.766;37.828;2023-07-13T09:36:58;18.30;83.50
40636;DHT22;26642;55.766;37.828;2023-07-13T09:39:28;18.30;84.10
40636;DHT22;26642;55.766;37.828;2023-07-13T09:44:33;18.20;83.60
40636;DHT22;26642;55.766;37.828;2023-07-13T09:46:59;18.30;83.70
40636;DHT22;26642;55.766;37.828;2023-07-13T09:49:35;18.20;83.90
40636;DHT22;26642;55.766;37.828;2023-07-13T09:52:03;18.20;84.40
40636;DHT22;26642;55.766;37.828;2023-07-13T09:54:32;18.20;84.40
40636;DHT22;26642;55.766;37.828;2023-07-13T09:57:00;18.20;84.40
40636;DHT22;26642;55.766;37.828;2023-07-13T09:59:35;18.10;84.40
40636;DHT22;26642;55.766;37.828;2023-07-13T10:02:02;18.10;84.80
40636;DHT22;26642;55.766;37.828;2023-07-13T10:04:51;18.10;85.20
40636;DHT22;26642;55.766;37.828;2023-07-13T10:07:22;18.10;85.60
40636;DHT22;26642;55.766;37.828;2023-07-13T10:09:52;18.10;85.40
40636;DHT22;26642;55.766;37.828;2023-07-13T10:12:20;18.20;85.40
40636;DHT22;26642;55.766;37.828;2023-07-13T10:14:48;18.10;85.30
40636;DHT22;26642;55.766;37.828;2023-07-13T10:17:14;18.20;85.00
40636;DHT22;26642;55.766;37.828;2023-07-13T10:19:42;18.20;84.20
40636;DHT22;26642;55.766;37.828;2023-07-13T10:22:24;18.20;83.90
40636;DHT22;26642;55.766;37.828;2023-07-13T10:24:52;18.20;84.10
40636;DHT22;26642;55.766;37.828;2023-07-13T10:27:20;18.20;83.80
40636;DHT22;26642;55.766;37.828;2023-07-13T10:30:11;18.20;84.00
40636;DHT22;26642;55.766;37.828;2023-07-13T10:32:38;18.10;84.50
40636;DHT22;26642;55.766;37.828;2023-07-13T10:35:05;18.10;84.80
40636;DHT22;26642;55.766;37.828;2023-07-13T10:37:57;18.10;85.00
40636;DHT22;26642;55.766;37.828;2023-07-13T10:40:33;18.10;85.40
40636;DHT22;26642;55.766;37.828;2023-07-13T10:43:03;18.10;85.90
40636;DHT22;26642;55.766;37.828;2023-07-13T10:45:34;18.10;86.10
40636;DHT22;26642;55.766;37.828;2023-07-13T10:48:02;18.00;85.70
40636;DHT22;26642;55.766;37.828;2023-07-13T10:50:30;18.00;85.30
40636;DHT22;26642;55.766;37.828;2023-07-13T10:53:38;18.00;85.50
40636;DHT22;26642;55.766;37.828;2023-07-13T10:58:41;18.00;85.60
40636;DHT22;26642;55.766;37.828;2023-07-13T11:01:10;18.00;85.60
40636;DHT22;26642;55.766;37.828;2023-07-13T11:11:37;17.90;86.00
40636;DHT22;26642;55.766;37.828;2023-07-13T11:14:31;17.90;86.00
40636;DHT22;26642;55.766;37.828;2023-07-13T11:17:24;17.80;86.40
40636;DHT22;26642;55.766;37.828;2023-07-13T11:22:48;17.80;86.80
40636;DHT22;26642;55.766;37.828;2023-07-13T11:33:22;17.70;86.30
40636;DHT22;26642;55.766;37.828;2023-07-13T11:36:05;17.70;86.00
40636;DHT22;26642;55.766;37.828;2023-07-13T11:38:41;17.70;86.00
40636;DHT22;26642;55.766;37.828;2023-07-13T11:41:35;17.70;86.10
40636;DHT22;26642;55.766;37.828;2023-07-13T11:44:15;17.60;86.60
40636;DHT22;26642;55.766;37.828;2023-07-13T11:46:46;17.60;86.60
40636;DHT22;26642;55.766;37.828;2023-07-13T11:49:17;17.60;87.10
40636;DHT22;26642;55.766;37.828;2023-07-13T11:51:45;17.60;86.90
40636;DHT22;26642;55.766;37.828;2023-07-13T11:54:34;17.50;87.00
40636;DHT22;26642;55.766;37.828;2023-07-13T11:59:50;17.50;88.50
40636;DHT22;26642;55.766;37.828;2023-07-13T12:02:28;17.50;88.70
40636;DHT22;26642;55.766;37.828;2023-07-13T12:04:55;17.50;88.70
40636;DHT22;26642;55.766;37.828;2023-07-13T12:07:22;17.40;89.00
40636;DHT22;26642;55.766;37.828;2023-07-13T12:09:48;17.40;89.40
40636;DHT22;26642;55.766;37.828;2023-07-13T12:12:28;17.40;89.60
40636;DHT22;26642;55.766;37.828;2023-07-13T12:14:55;17.40;90.00
40636;DHT22;26642;55.766;37.828;2023-07-13T12:17:24;17.40;90.00
40636;DHT22;26642;55.766;37.828;2023-07-13T12:19:52;17.40;90.00
40636;DHT22;26642;55.766;37.828;2023-07-13T12:22:19;17.40;90.30
40636;DHT22;26642;55.766;37.828;2023-07-13T12:24:46;17.40;90.50
40636;DHT22;26642;55.766;37.828;2023-07-13T12:27:22;17.40;90.40
40636;DHT22;26642;55.766;37.828;2023-07-13T12:30:21;17.40;90.50
40636;DHT22;26642;55.766;37.828;2023-07-13T12:33:00;17.40;90.60
40636;DHT22;26642;55.766;37.828;2023-07-13T12:35:29;17.40;90.80
40636;DHT22;26642;55.766;37.828;2023-07-13T12:37:57;17.40;90.90
40636;DHT22;26642;55.766;37.828;2023-07-13T12:40:32;17.30;90.70
40636;DHT22;26642;55.766;37.828;2023-07-13T12:42:59;17.40;90.80
40636;DHT22;26642;55.766;37.828;2023-07-13T12:45:30;17.30;90.70
40636;DHT22;26642;55.766;37.828;2023-07-13T12:48:15;17.40;90.70
40636;DHT22;26642;55.766;37.828;2023-07-13T12:50:48;17.40;90.50
40636;DHT22;26642;55.766;37.828;2023-07-13T12:53:27;17.40;90.60
40636;DHT22;26642;55.766;37.828;2023-07-13T12:55:57;17.40;90.60
40636;DHT22;26642;55.766;37.828;2023-07-13T12:58:39;17.40;90.70
40636;DHT22;26642;55.766;37.828;2023-07-13T13:01:07;17.40;90.60
40636;DHT22;26642;55.766;37.828;2023-07-13T13:03:40;17.40;90.50
40636;DHT22;26642;55.766;37.828;2023-07-13T13:08:52;17.40;90.60
40636;DHT22;26642;55.766;37.828;2023-07-13T13:11:19;17.40;90.70
40636;DHT22;26642;55.766;37.828;2023-07-13T13:13:46;17.40;90.70
40636;DHT22;26642;55.766;37.828;2023-07-13T13:16:29;17.30;90.80
40636;DHT22;26642;55.766;37.828;2023-07-13T13:18:59;17.40;90.70
40636;DHT22;26642;55.766;37.828;2023-07-13T13:21:28;17.30;90.50
40636;DHT22;26642;55.766;37.828;2023-07-13T13:23:54;17.30;90.40
40636;DHT22;26642;55.766;37.828;2023-07-13T13:26:21;17.30;90.60
40636;DHT22;26642;55.766;37.828;2023-07-13T13:28:48;17.30;90.60
40636;DHT22;26642;55.766;37.828;2023-07-13T13:31:15;17.30;90.60
40636;DHT22;26642;55.766;37.828;2023-07-13T13:33:43;17.30;90.60
40636;DHT22;26642;55.766;37.828;2023-07-13T13:36:18;17.30;90.60
40636;DHT22;26642;55.766;37.828;2023-07-13T13:38:44;17.20;90.70
40636;DHT22;26642;55.766;37.828;2023-07-13T13:41:12;17.20;91.00
40636;DHT22;26642;55.766;37.828;2023-07-13T13:43:42;17.20;91.10
40636;DHT22;26642;55.766;37.828;2023-07-13T13:46:20;17.20;91.20
40636;DHT22;26642;55.766;37.828;2023-07-13T13:48:48;17.20;90.90
40636;DHT22;26642;55.766;37.828;2023-07-13T13:51:20;17.20;90.90
40636;DHT22;26642;55.766;37.828;2023-07-13T13:53:46;17.10;90.80
40636;DHT22;26642;55.766;37.828;2023-07-13T13:56:14;17.20;91.30
40636;DHT22;26642;55.766;37.828;2023-07-13T13:58:40;17.20;91.30
40636;DHT22;26642;55.766;37.828;2023-07-13T14:01:30;17.20;91.60
40636;DHT22;26642;55.766;37.828;2023-07-13T14:03:56;17.20;91.50
40636;DHT22;26642;55.766;37.828;2023-07-13T14:06:24;17.20;91.60
40636;DHT22;26642;55.766;37.828;2023-07-13T14:08:50;17.20;91.50
40636;DHT22;26642;55.766;37.828;2023-07-13T14:11:19;17.30;91.30
40636;DHT22;26642;55.766;37.828;2023-07-13T14:13:57;17.30;90.90
40636;DHT22;26642;55.766;37.828;2023-07-13T14:16:27;17.30;90.80
40636;DHT22;26642;55.766;37.828;2023-07-13T14:18:55;17.20;90.70
40636;DHT22;26642;55.766;37.828;2023-07-13T14:21:24;17.20;90.80
40636;DHT22;26642;55.766;37.828;2023-07-13T14:23:50;17.20;90.90
40636;DHT22;26642;55.766;37.828;2023-07-13T14:26:19;17.20;90.80
40636;DHT22;26642;55.766;37.828;2023-07-13T14:28:47;17.20;90.70
40636;DHT22;26642;55.766;37.828;2023-07-13T14:31:15;17.20;90.90
40636;DHT22;26642;55.766;37.828;2023-07-13T14:33:42;17.10;91.00
40636;DHT22;26642;55.766;37.828;2023-07-13T14:38:52;17.00;91.30
40636;DHT22;26642;55.766;37.828;2023-07-13T14:41:19;17.00;91.60
40636;DHT22;26642;55.766;37.828;2023-07-13T14:43:46;17.00;91.60
40636;DHT22;26642;55.766;37.828;2023-07-13T14:46:31;17.00;91.70
40636;DHT22;26642;55.766;37.828;2023-07-13T14:49:06;17.00;91.80
40636;DHT22;26642;55.766;37.828;2023-07-13T14:51:33;17.00;91.80
40636;DHT22;26642;55.766;37.828;2023-07-13T14:54:05;17.00;91.80
40636;DHT22;26642;55.766;37.828;2023-07-13T14:56:31;17.00;92.00
40636;DHT22;26642;55.766;37.828;2023-07-13T14:58:57;17.00;92.00
40636;DHT22;26642;55.766;37.828;2023-07-13T15:01:23;17.00;92.20
40636;DHT22;26642;55.766;37.828;2023-07-13T15:03:52;17.00;92.00
40636;DHT22;26642;55.766;37.828;2023-07-13T15:06:19;17.00;91.80
40636;DHT22;26642;55.766;37.828;2023-07-13T15:08:46;17.00;91.70
40636;DHT22;26642;55.766;37.828;2023-07-13T15:11:12;17.00;91.60
40636;DHT22;26642;55.766;37.828;2023-07-13T15:13:39;17.00;91.60
40636;DHT22;26642;55.766;37.828;2023-07-13T15:16:17;17.00;91.70
40636;DHT22;26642;55.766;37.828;2023-07-13T15:18:44;17.00;91.70
40636;DHT22;26642;55.766;37.828;2023-07-13T15:21:15;17.00;91.70
40636;DHT22;26642;55.766;37.828;2023-07-13T15:23:44;17.10;91.60
40636;DHT22;26642;55.766;37.828;2023-07-13T15:26:14;17.10;91.50
40636;DHT22;26642;55.766;37.828;2023-07-13T15:28:44;17.10;91.50
40636;DHT22;26642;55.766;37.828;2023-07-13T15:31:25;17.10;91.50
40636;DHT22;26642;55.766;37.828;2023-07-13T15:33:55;17.10;91.80
40636;DHT22;26642;55.766;37.828;2023-07-13T15:36:23;17.10;92.00
40636;DHT22;26642;55.766;37.828;2023-07-13T15:38:54;17.20;92.10
40636;DHT22;26642;55.766;37.828;2023-07-13T15:41:27;17.10;92.10
40636;DHT22;26642;55.766;37.828;2023-07-13T15:43:56;17.20;92.40
40636;DHT22;26642;55.766;37.828;2023-07-13T15:46:25;17.20;92.30
40636;DHT22;26642;55.766;37.828;2023-07-13T15:48:52;17.20;92.30
40636;DHT22;26642;55.766;37.828;2023-07-13T15:51:27;17.20;92.10
40636;DHT22;26642;55.766;37.828;2023-07-13T15:54:02;17.20;92.20
40636;DHT22;26642;55.766;37.828;2023-07-13T15:56:35;17.20;92.30
40636;DHT22;26642;55.766;37.828;2023-07-13T15:59:02;17.10;92.30
40636;DHT22;26642;55.766;37.828;2023-07-13T16:01:30;17.10;92.50
40636;DHT22;26642;55.766;37.828;2023-07-13T16:03:56;17.10;92.50
40636;DHT22;26642;55.766;37.828;2023-07-13T16:06:36;17.10;92.60
40636;DHT22;26642;55.766;37.828;2023-07-13T16:09:04;17.10;92.80
40636;DHT22;26642;55.766;37.828;2023-07-13T16:11:36;17.20;92.70
40636;DHT22;26642;55.766;37.828;2023-07-13T16:14:03;17.20;92.70